sensor_id;sensor_type;location;lat;lon;timestamp;P1;durP1;ratioP1;P2;durP2;ratioP2
46363;SDS011;32071;49.036;9.344;2023-06-26T00:00:19;9.20;;;7.27;;
46363;SDS011;32071;49.036;9.344;2023-06-26T00:02:44;8.13;;;7.27;;
46363;SDS011;32071;49.036;9.344;2023-06-26T00:05:10;11.67;;;7.80;;
46363;SDS011;32071;49.036;9.344;2023-06-26T00:07:36;9.00;;;7.50;;
46363;SDS011;32071;49.036;9.344;2023-06-26T00:10:02;9.47;;;7.53;;
46363;SDS011;32071;49.036;9.344;2023-06-26T00:12:29;12.70;;;8.23;;
46363;SDS011;32071;49.036;9.344;2023-06-26T00:14:55;9.10;;;7.43;;
46363;SDS011;32071;49.036;9.344;2023-06-26T00:17:21;13.23;;;7.97;;
46363;SDS011;32071;49.036;9.344;2023-06-26T00:19:47;9.63;;;7.93;;
46363;SDS011;32071;49.036;9.344;2023-06-26T00:22:12;10.27;;;7.20;;
46363;SDS011;32071;49.036;9.344;2023-06-26T00:24:38;10.17;;;8.20;;
46363;SDS011;32071;49.036;9.344;2023-06-26T00:27:04;8.57;;;7.10;;
46363;SDS011;32071;49.036;9.344;2023-06-26T00:29:30;10.00;;;7.57;;
46363;SDS011;32071;49.036;9.344;2023-06-26T00:31:55;13.07;;;8.60;;
46363;SDS011;32071;49.036;9.344;2023-06-26T00:34:21;13.63;;;8.07;;
46363;SDS011;32071;49.036;9.344;2023-06-26T00:36:46;10.20;;;8.50;;
46363;SDS011;32071;49.036;9.344;2023-06-26T00:39:12;10.93;;;7.83;;
46363;SDS011;32071;49.036;9.344;2023-06-26T00:41:38;9.73;;;7.83;;
46363;SDS011;32071;49.036;9.344;2023-06-26T00:44:04;10.13;;;8.27;;
46363;SDS011;32071;49.036;9.344;2023-06-26T00:46:30;10.50;;;7.73;;
46363;SDS011;32071;49.036;9.344;2023-06-26T00:48:56;9.03;;;8.00;;
46363;SDS011;32071;49.036;9.344;2023-06-26T00:51:24;10.63;;;7.27;;
46363;SDS011;32071;49.036;9.344;2023-06-26T00:53:51;14.30;;;9.20;;
46363;SDS011;32071;49.036;9.344;2023-06-26T00:56:17;11.60;;;8.43;;
46363;SDS011;32071;49.036;9.344;2023-06-26T00:58:44;11.33;;;8.90;;
46363;SDS011;32071;49.036;9.344;2023-06-26T01:01:10;10.97;;;8.30;;
46363;SDS011;32071;49.036;9.344;2023-06-26T01:03:39;8.93;;;7.57;;
46363;SDS011;32071;49.036;9.344;2023-06-26T01:06:04;10.33;;;8.27;;
46363;SDS011;32071;49.036;9.344;2023-06-26T01:08:30;11.93;;;8.23;;
46363;SDS011;32071;49.036;9.344;2023-06-26T01:10:56;9.10;;;7.60;;
46363;SDS011;32071;49.036;9.344;2023-06-26T01:13:24;11.80;;;9.37;;
46363;SDS011;32071;49.036;9.344;2023-06-26T01:15:49;11.90;;;8.87;;
46363;SDS011;32071;49.036;9.344;2023-06-26T01:18:16;17.67;;;8.90;;
46363;SDS011;32071;49.036;9.344;2023-06-26T01:20:42;10.00;;;8.57;;
46363;SDS011;32071;49.036;9.344;2023-06-26T01:23:14;10.70;;;8.97;;
46363;SDS011;32071;49.036;9.344;2023-06-26T01:25:56;12.67;;;7.90;;
46363;SDS011;32071;49.036;9.344;2023-06-26T01:28:33;9.50;;;7.90;;
46363;SDS011;32071;49.036;9.344;2023-06-26T01:31:07;11.77;;;8.80;;
46363;SDS011;32071;49.036;9.344;2023-06-26T01:33:33;14.00;;;9.20;;
46363;SDS011;32071;49.036;9.344;2023-06-26T01:36:00;9.57;;;8.30;;
46363;SDS011;32071;49.036;9.344;2023-06-26T01:38:26;10.87;;;7.83;;
46363;SDS011;32071;49.036;9.344;2023-06-26T01:40:52;10.10;;;8.50;;
46363;SDS011;32071;49.036;9.344;2023-06-26T01:45:53;12.90;;;8.93;;
46363;SDS011;32071;49.036;9.344;2023-06-26T01:48:23;11.03;;;9.60;;
46363;SDS011;32071;49.036;9.344;2023-06-26T01:50:53;10.40;;;8.13;;
46363;SDS011;32071;49.036;9.344;2023-06-26T01:53:24;9.97;;;8.50;;
46363;SDS011;32071;49.036;9.344;2023-06-26T01:55:51;8.83;;;7.80;;
46363;SDS011;32071;49.036;9.344;2023-06-26T01:58:25;12.53;;;9.23;;
46363;SDS011;32071;49.036;9.344;2023-06-26T02:00:51;10.30;;;8.47;;
46363;SDS011;32071;49.036;9.344;2023-06-26T02:03:17;11.47;;;8.83;;
46363;SDS011;32071;49.036;9.344;2023-06-26T02:05:42;11.80;;;8.77;;
46363;SDS011;32071;49.036;9.344;2023-06-26T02:08:10;11.10;;;8.40;;
46363;SDS011;32071;49.036;9.344;2023-06-26T02:10:39;12.90;;;9.23;;
46363;SDS011;32071;49.036;9.344;2023-06-26T02:13:04;10.23;;;8.67;;
46363;SDS011;32071;49.036;9.344;2023-06-26T02:15:30;12.13;;;8.43;;
46363;SDS011;32071;49.036;9.344;2023-06-26T02:17:55;12.93;;;8.73;;
46363;SDS011;32071;49.036;9.344;2023-06-26T02:20:21;12.07;;;8.97;;
46363;SDS011;32071;49.036;9.344;2023-06-26T02:22:47;13.80;;;8.43;;
46363;SDS011;32071;49.036;9.344;2023-06-26T02:25:14;11.87;;;8.87;;
46363;SDS011;32071;49.036;9.344;2023-06-26T02:27:39;10.33;;;8.40;;
46363;SDS011;32071;49.036;9.344;2023-06-26T02:30:05;13.13;;;8.73;;
46363;SDS011;32071;49.036;9.344;2023-06-26T02:32:32;10.80;;;8.70;;
46363;SDS011;32071;49.036;9.344;2023-06-26T02:34:58;11.70;;;8.90;;
46363;SDS011;32071;49.036;9.344;2023-06-26T02:37:23;10.37;;;8.90;;
46363;SDS011;32071;49.036;9.344;2023-06-26T02:39:49;11.47;;;8.67;;
46363;SDS011;32071;49.036;9.344;2023-06-26T02:42:14;13.87;;;8.57;;
46363;SDS011;32071;49.036;9.344;2023-06-26T02:44:40;10.37;;;8.70;;
46363;SDS011;32071;49.036;9.344;2023-06-26T02:47:06;10.90;;;8.90;;
46363;SDS011;32071;49.036;9.344;2023-06-26T02:49:31;12.83;;;9.17;;
46363;SDS011;32071;49.036;9.344;2023-06-26T02:51:57;11.00;;;8.50;;
46363;SDS011;32071;49.036;9.344;2023-06-26T02:54:22;11.03;;;9.13;;
46363;SDS011;32071;49.036;9.344;2023-06-26T02:56:48;11.50;;;8.97;;
46363;SDS011;32071;49.036;9.344;2023-06-26T02:59:14;10.53;;;8.53;;
46363;SDS011;32071;49.036;9.344;2023-06-26T03:01:40;10.40;;;8.43;;
46363;SDS011;32071;49.036;9.344;2023-06-26T03:04:05;12.37;;;9.77;;
46363;SDS011;32071;49.036;9.344;2023-06-26T03:06:31;11.70;;;8.90;;
46363;SDS011;32071;49.036;9.344;2023-06-26T03:08:56;13.47;;;9.03;;
46363;SDS011;32071;49.036;9.344;2023-06-26T03:11:22;11.77;;;9.40;;
46363;SDS011;32071;49.036;9.344;2023-06-26T03:13:47;12.00;;;9.87;;
46363;SDS011;32071;49.036;9.344;2023-06-26T03:16:13;10.30;;;8.20;;
46363;SDS011;32071;49.036;9.344;2023-06-26T03:18:38;11.03;;;8.43;;
46363;SDS011;32071;49.036;9.344;2023-06-26T03:21:04;9.73;;;8.53;;
46363;SDS011;32071;49.036;9.344;2023-06-26T03:23:29;9.87;;;8.10;;
46363;SDS011;32071;49.036;9.344;2023-06-26T03:25:55;11.77;;;9.50;;
46363;SDS011;32071;49.036;9.344;2023-06-26T03:28:21;10.20;;;8.40;;
46363;SDS011;32071;49.036;9.344;2023-06-26T03:30:46;10.40;;;8.30;;
46363;SDS011;32071;49.036;9.344;2023-06-26T03:33:12;12.97;;;8.70;;
46363;SDS011;32071;49.036;9.344;2023-06-26T03:35:37;10.50;;;8.90;;
46363;SDS011;32071;49.036;9.344;2023-06-26T03:38:03;12.07;;;9.43;;
46363;SDS011;32071;49.036;9.344;2023-06-26T03:40:29;10.60;;;8.70;;
46363;SDS011;32071;49.036;9.344;2023-06-26T03:42:55;11.30;;;9.10;;
46363;SDS011;32071;49.036;9.344;2023-06-26T03:45:20;11.40;;;8.73;;
46363;SDS011;32071;49.036;9.344;2023-06-26T03:47:46;11.83;;;8.70;;
46363;SDS011;32071;49.036;9.344;2023-06-26T03:50:14;11.17;;;8.50;;
46363;SDS011;32071;49.036;9.344;2023-06-26T03:52:40;10.73;;;8.90;;
46363;SDS011;32071;49.036;9.344;2023-06-26T03:55:06;10.17;;;8.50;;
46363;SDS011;32071;49.036;9.344;2023-06-26T03:57:33;10.90;;;8.43;;
46363;SDS011;32071;49.036;9.344;2023-06-26T03:59:58;12.10;;;9.50;;
46363;SDS011;32071;49.036;9.344;2023-06-26T04:02:24;12.23;;;8.90;;
46363;SDS011;32071;49.036;9.344;2023-06-26T04:04:50;12.13;;;8.90;;
46363;SDS011;32071;49.036;9.344;2023-06-26T04:07:17;12.50;;;9.27;;
46363;SDS011;32071;49.036;9.344;2023-06-26T04:09:44;10.47;;;8.67;;
46363;SDS011;32071;49.036;9.344;2023-06-26T04:12:09;13.57;;;9.63;;
46363;SDS011;32071;49.036;9.344;2023-06-26T04:14:35;13.50;;;9.20;;
46363;SDS011;32071;49.036;9.344;2023-06-26T04:17:00;11.37;;;9.70;;
46363;SDS011;32071;49.036;9.344;2023-06-26T04:19:29;10.90;;;8.70;;
46363;SDS011;32071;49.036;9.344;2023-06-26T04:21:55;8.90;;;8.00;;
46363;SDS011;32071;49.036;9.344;2023-06-26T04:24:21;12.87;;;9.10;;
46363;SDS011;32071;49.036;9.344;2023-06-26T04:26:46;11.87;;;9.10;;
46363;SDS011;32071;49.036;9.344;2023-06-26T04:29:12;14.90;;;9.20;;
46363;SDS011;32071;49.036;9.344;2023-06-26T04:31:38;11.10;;;9.30;;
46363;SDS011;32071;49.036;9.344;2023-06-26T04:34:04;12.87;;;9.60;;
46363;SDS011;32071;49.036;9.344;2023-06-26T04:36:30;11.20;;;9.70;;
46363;SDS011;32071;49.036;9.344;2023-06-26T04:38:56;11.47;;;9.03;;
46363;SDS011;32071;49.036;9.344;2023-06-26T04:41:23;14.83;;;9.47;;
46363;SDS011;32071;49.036;9.344;2023-06-26T04:43:49;10.97;;;9.03;;
46363;SDS011;32071;49.036;9.344;2023-06-26T04:46:15;11.00;;;9.63;;
46363;SDS011;32071;49.036;9.344;2023-06-26T04:48:40;10.30;;;8.73;;
46363;SDS011;32071;49.036;9.344;2023-06-26T04:51:06;10.60;;;8.53;;
46363;SDS011;32071;49.036;9.344;2023-06-26T04:53:31;11.53;;;9.10;;
46363;SDS011;32071;49.036;9.344;2023-06-26T04:55:57;11.93;;;9.23;;
46363;SDS011;32071;49.036;9.344;2023-06-26T04:58:22;10.80;;;9.37;;
46363;SDS011;32071;49.036;9.344;2023-06-26T05:00:48;10.90;;;9.00;;
46363;SDS011;32071;49.036;9.344;2023-06-26T05:03:15;10.40;;;8.70;;
46363;SDS011;32071;49.036;9.344;2023-06-26T05:05:42;12.37;;;9.60;;
46363;SDS011;32071;49.036;9.344;2023-06-26T05:10:44;13.30;;;10.20;;
46363;SDS011;32071;49.036;9.344;2023-06-26T05:13:10;11.43;;;9.17;;
46363;SDS011;32071;49.036;9.344;2023-06-26T05:15:35;11.33;;;9.20;;
46363;SDS011;32071;49.036;9.344;2023-06-26T05:18:01;10.83;;;9.13;;
46363;SDS011;32071;49.036;9.344;2023-06-26T05:20:27;11.30;;;9.67;;
46363;SDS011;32071;49.036;9.344;2023-06-26T05:22:52;11.10;;;9.77;;
46363;SDS011;32071;49.036;9.344;2023-06-26T05:25:19;13.30;;;9.30;;
46363;SDS011;32071;49.036;9.344;2023-06-26T05:27:46;12.00;;;9.80;;
46363;SDS011;32071;49.036;9.344;2023-06-26T05:30:14;11.27;;;9.10;;
46363;SDS011;32071;49.036;9.344;2023-06-26T05:32:40;16.00;;;9.87;;
46363;SDS011;32071;49.036;9.344;2023-06-26T05:35:06;12.77;;;9.60;;
46363;SDS011;32071;49.036;9.344;2023-06-26T05:37:33;13.23;;;9.43;;
46363;SDS011;32071;49.036;9.344;2023-06-26T05:39:59;13.17;;;9.80;;
46363;SDS011;32071;49.036;9.344;2023-06-26T05:42:26;11.07;;;9.63;;
46363;SDS011;32071;49.036;9.344;2023-06-26T05:44:53;17.43;;;9.27;;
46363;SDS011;32071;49.036;9.344;2023-06-26T05:47:18;12.93;;;10.40;;
46363;SDS011;32071;49.036;9.344;2023-06-26T05:49:44;10.37;;;9.30;;
46363;SDS011;32071;49.036;9.344;2023-06-26T05:52:10;10.67;;;9.37;;
46363;SDS011;32071;49.036;9.344;2023-06-26T05:54:36;10.63;;;9.53;;
46363;SDS011;32071;49.036;9.344;2023-06-26T05:57:02;9.70;;;8.40;;
46363;SDS011;32071;49.036;9.344;2023-06-26T05:59:30;11.73;;;9.77;;
46363;SDS011;32071;49.036;9.344;2023-06-26T06:01:57;11.70;;;10.30;;
46363;SDS011;32071;49.036;9.344;2023-06-26T06:04:22;13.60;;;10.63;;
46363;SDS011;32071;49.036;9.344;2023-06-26T06:06:48;12.97;;;10.47;;
46363;SDS011;32071;49.036;9.344;2023-06-26T06:09:13;11.70;;;8.93;;
46363;SDS011;32071;49.036;9.344;2023-06-26T06:11:39;11.60;;;10.30;;
46363;SDS011;32071;49.036;9.344;2023-06-26T06:14:05;11.30;;;10.13;;
46363;SDS011;32071;49.036;9.344;2023-06-26T06:16:30;10.80;;;9.70;;
46363;SDS011;32071;49.036;9.344;2023-06-26T06:18:56;12.30;;;9.83;;
46363;SDS011;32071;49.036;9.344;2023-06-26T06:21:21;11.20;;;9.73;;
46363;SDS011;32071;49.036;9.344;2023-06-26T06:23:47;10.70;;;9.60;;
46363;SDS011;32071;49.036;9.344;2023-06-26T06:26:12;12.70;;;10.83;;
46363;SDS011;32071;49.036;9.344;2023-06-26T06:28:38;11.27;;;10.07;;
46363;SDS011;32071;49.036;9.344;2023-06-26T06:31:04;11.43;;;9.37;;
46363;SDS011;32071;49.036;9.344;2023-06-26T06:33:30;10.17;;;9.00;;
46363;SDS011;32071;49.036;9.344;2023-06-26T06:35:55;11.23;;;9.70;;
46363;SDS011;32071;49.036;9.344;2023-06-26T06:38:21;10.97;;;9.83;;
46363;SDS011;32071;49.036;9.344;2023-06-26T06:40:46;10.23;;;9.23;;
46363;SDS011;32071;49.036;9.344;2023-06-26T06:43:12;11.73;;;10.50;;
46363;SDS011;32071;49.036;9.344;2023-06-26T06:45:37;14.20;;;10.80;;
46363;SDS011;32071;49.036;9.344;2023-06-26T06:48:04;12.50;;;10.37;;
46363;SDS011;32071;49.036;9.344;2023-06-26T06:50:29;11.20;;;9.80;;
46363;SDS011;32071;49.036;9.344;2023-06-26T06:52:55;11.53;;;10.33;;
46363;SDS011;32071;49.036;9.344;2023-06-26T06:55:21;12.50;;;9.97;;
46363;SDS011;32071;49.036;9.344;2023-06-26T06:57:47;11.47;;;10.27;;
46363;SDS011;32071;49.036;9.344;2023-06-26T07:00:12;12.27;;;10.33;;
46363;SDS011;32071;49.036;9.344;2023-06-26T07:02:42;13.07;;;10.83;;
46363;SDS011;32071;49.036;9.344;2023-06-26T07:05:09;13.60;;;10.80;;
46363;SDS011;32071;49.036;9.344;2023-06-26T07:07:35;11.80;;;10.10;;
46363;SDS011;32071;49.036;9.344;2023-06-26T07:10:02;12.00;;;10.40;;
46363;SDS011;32071;49.036;9.344;2023-06-26T07:12:29;11.60;;;10.40;;
46363;SDS011;32071;49.036;9.344;2023-06-26T07:14:55;10.97;;;9.70;;
46363;SDS011;32071;49.036;9.344;2023-06-26T07:17:21;12.47;;;11.27;;
46363;SDS011;32071;49.036;9.344;2023-06-26T07:19:48;11.93;;;10.77;;
46363;SDS011;32071;49.036;9.344;2023-06-26T07:22:14;12.90;;;11.13;;
46363;SDS011;32071;49.036;9.344;2023-06-26T07:24:39;11.43;;;10.33;;
46363;SDS011;32071;49.036;9.344;2023-06-26T07:27:05;12.43;;;9.63;;
46363;SDS011;32071;49.036;9.344;2023-06-26T07:29:31;11.10;;;9.87;;
46363;SDS011;32071;49.036;9.344;2023-06-26T07:31:56;11.27;;;10.13;;
46363;SDS011;32071;49.036;9.344;2023-06-26T07:34:22;12.63;;;10.50;;
46363;SDS011;32071;49.036;9.344;2023-06-26T07:36:47;11.43;;;10.33;;
46363;SDS011;32071;49.036;9.344;2023-06-26T07:39:13;12.70;;;10.77;;
46363;SDS011;32071;49.036;9.344;2023-06-26T07:41:38;11.40;;;10.10;;
46363;SDS011;32071;49.036;9.344;2023-06-26T07:44:04;12.43;;;11.13;;
46363;SDS011;32071;49.036;9.344;2023-06-26T07:46:29;11.90;;;10.77;;
46363;SDS011;32071;49.036;9.344;2023-06-26T07:48:55;10.60;;;9.60;;
46363;SDS011;32071;49.036;9.344;2023-06-26T07:51:20;11.43;;;10.33;;
46363;SDS011;32071;49.036;9.344;2023-06-26T07:53:46;11.47;;;10.27;;
46363;SDS011;32071;49.036;9.344;2023-06-26T07:56:12;11.50;;;10.30;;
46363;SDS011;32071;49.036;9.344;2023-06-26T07:58:37;13.73;;;10.20;;
46363;SDS011;32071;49.036;9.344;2023-06-26T08:01:03;12.00;;;10.80;;
46363;SDS011;32071;49.036;9.344;2023-06-26T08:03:29;11.70;;;9.97;;
46363;SDS011;32071;49.036;9.344;2023-06-26T08:05:54;11.00;;;10.00;;
46363;SDS011;32071;49.036;9.344;2023-06-26T08:08:20;10.67;;;9.57;;
46363;SDS011;32071;49.036;9.344;2023-06-26T08:10:45;10.93;;;9.83;;
46363;SDS011;32071;49.036;9.344;2023-06-26T08:13:11;10.03;;;9.13;;
46363;SDS011;32071;49.036;9.344;2023-06-26T08:15:37;12.00;;;10.43;;
46363;SDS011;32071;49.036;9.344;2023-06-26T08:18:02;11.13;;;10.03;;
46363;SDS011;32071;49.036;9.344;2023-06-26T08:20:28;10.60;;;9.60;;
46363;SDS011;32071;49.036;9.344;2023-06-26T08:22:54;11.23;;;9.63;;
46363;SDS011;32071;49.036;9.344;2023-06-26T08:25:20;10.47;;;9.50;;
46363;SDS011;32071;49.036;9.344;2023-06-26T08:27:46;10.87;;;9.87;;
46363;SDS011;32071;49.036;9.344;2023-06-26T08:30:11;10.00;;;9.10;;
46363;SDS011;32071;49.036;9.344;2023-06-26T08:32:38;11.70;;;10.10;;
46363;SDS011;32071;49.036;9.344;2023-06-26T08:35:04;11.07;;;10.03;;
46363;SDS011;32071;49.036;9.344;2023-06-26T08:37:31;11.07;;;10.00;;
46363;SDS011;32071;49.036;9.344;2023-06-26T08:39:57;11.00;;;9.90;;
46363;SDS011;32071;49.036;9.344;2023-06-26T08:42:26;11.60;;;10.40;;
46363;SDS011;32071;49.036;9.344;2023-06-26T08:44:52;12.53;;;11.23;;
46363;SDS011;32071;49.036;9.344;2023-06-26T08:47:17;11.37;;;10.20;;
46363;SDS011;32071;49.036;9.344;2023-06-26T08:52:31;11.13;;;10.03;;
46363;SDS011;32071;49.036;9.344;2023-06-26T08:55:01;11.40;;;10.37;;
46363;SDS011;32071;49.036;9.344;2023-06-26T08:57:27;11.30;;;10.07;;
46363;SDS011;32071;49.036;9.344;2023-06-26T08:59:55;11.17;;;10.07;;
46363;SDS011;32071;49.036;9.344;2023-06-26T09:02:21;11.83;;;10.73;;
46363;SDS011;32071;49.036;9.344;2023-06-26T09:04:47;12.33;;;10.23;;
46363;SDS011;32071;49.036;9.344;2023-06-26T09:07:14;10.70;;;9.80;;
46363;SDS011;32071;49.036;9.344;2023-06-26T09:09:40;11.10;;;10.10;;
46363;SDS011;32071;49.036;9.344;2023-06-26T09:12:05;10.63;;;9.60;;
46363;SDS011;32071;49.036;9.344;2023-06-26T09:14:32;11.23;;;10.20;;
46363;SDS011;32071;49.036;9.344;2023-06-26T09:16:58;11.70;;;10.60;;
46363;SDS011;32071;49.036;9.344;2023-06-26T09:19:24;11.30;;;10.20;;
46363;SDS011;32071;49.036;9.344;2023-06-26T09:21:50;9.60;;;8.70;;
46363;SDS011;32071;49.036;9.344;2023-06-26T09:24:16;12.37;;;10.80;;
46363;SDS011;32071;49.036;9.344;2023-06-26T09:26:42;10.47;;;9.57;;
46363;SDS011;32071;49.036;9.344;2023-06-26T09:29:08;10.17;;;9.27;;
46363;SDS011;32071;49.036;9.344;2023-06-26T09:31:38;10.73;;;9.77;;
46363;SDS011;32071;49.036;9.344;2023-06-26T09:34:04;10.20;;;9.20;;
46363;SDS011;32071;49.036;9.344;2023-06-26T09:36:31;10.50;;;9.50;;
46363;SDS011;32071;49.036;9.344;2023-06-26T09:39:01;11.97;;;9.53;;
46363;SDS011;32071;49.036;9.344;2023-06-26T09:41:29;10.33;;;9.30;;
46363;SDS011;32071;49.036;9.344;2023-06-26T09:43:56;9.67;;;8.80;;
46363;SDS011;32071;49.036;9.344;2023-06-26T09:46:29;9.80;;;8.80;;
46363;SDS011;32071;49.036;9.344;2023-06-26T09:51:32;9.53;;;8.63;;
46363;SDS011;32071;49.036;9.344;2023-06-26T09:53:58;9.03;;;8.20;;
46363;SDS011;32071;49.036;9.344;2023-06-26T09:56:28;9.27;;;8.37;;
46363;SDS011;32071;49.036;9.344;2023-06-26T09:58:58;9.23;;;8.33;;
46363;SDS011;32071;49.036;9.344;2023-06-26T10:01:26;9.80;;;8.90;;
46363;SDS011;32071;49.036;9.344;2023-06-26T10:03:53;9.13;;;8.40;;
46363;SDS011;32071;49.036;9.344;2023-06-26T10:06:19;9.57;;;8.67;;
46363;SDS011;32071;49.036;9.344;2023-06-26T10:08:58;10.57;;;9.47;;
46363;SDS011;32071;49.036;9.344;2023-06-26T10:11:25;9.37;;;8.57;;
46363;SDS011;32071;49.036;9.344;2023-06-26T10:13:57;10.10;;;9.20;;
46363;SDS011;32071;49.036;9.344;2023-06-26T10:16:26;10.50;;;9.00;;
46363;SDS011;32071;49.036;9.344;2023-06-26T10:18:53;10.10;;;9.10;;
46363;SDS011;32071;49.036;9.344;2023-06-26T10:21:24;12.17;;;11.17;;
46363;SDS011;32071;49.036;9.344;2023-06-26T10:23:51;11.70;;;10.50;;
46363;SDS011;32071;49.036;9.344;2023-06-26T10:26:19;10.90;;;10.07;;
46363;SDS011;32071;49.036;9.344;2023-06-26T10:28:46;10.43;;;9.43;;
46363;SDS011;32071;49.036;9.344;2023-06-26T10:31:14;10.60;;;9.50;;
46363;SDS011;32071;49.036;9.344;2023-06-26T10:33:41;11.17;;;10.03;;
46363;SDS011;32071;49.036;9.344;2023-06-26T10:36:13;11.13;;;10.20;;
46363;SDS011;32071;49.036;9.344;2023-06-26T10:38:54;10.60;;;9.70;;
46363;SDS011;32071;49.036;9.344;2023-06-26T10:41:22;11.63;;;10.50;;
46363;SDS011;32071;49.036;9.344;2023-06-26T10:44:10;11.43;;;10.23;;
46363;SDS011;32071;49.036;9.344;2023-06-26T10:46:49;11.37;;;10.30;;
46363;SDS011;32071;49.036;9.344;2023-06-26T10:49:16;10.57;;;9.70;;
46363;SDS011;32071;49.036;9.344;2023-06-26T10:51:45;11.50;;;10.43;;
46363;SDS011;32071;49.036;9.344;2023-06-26T10:54:15;11.80;;;10.80;;
46363;SDS011;32071;49.036;9.344;2023-06-26T10:59:19;11.70;;;10.80;;
46363;SDS011;32071;49.036;9.344;2023-06-26T11:01:46;11.30;;;10.40;;
46363;SDS011;32071;49.036;9.344;2023-06-26T11:07:15;12.53;;;11.33;;
46363;SDS011;32071;49.036;9.344;2023-06-26T11:10:01;12.00;;;10.83;;
46363;SDS011;32071;49.036;9.344;2023-06-26T11:12:34;12.50;;;11.20;;
46363;SDS011;32071;49.036;9.344;2023-06-26T11:15:10;11.97;;;11.03;;
46363;SDS011;32071;49.036;9.344;2023-06-26T11:17:38;12.70;;;11.40;;
46363;SDS011;32071;49.036;9.344;2023-06-26T11:20:07;12.83;;;11.63;;
46363;SDS011;32071;49.036;9.344;2023-06-26T11:22:34;12.50;;;11.30;;
46363;SDS011;32071;49.036;9.344;2023-06-26T11:25:01;10.87;;;9.97;;
46363;SDS011;32071;49.036;9.344;2023-06-26T11:27:32;11.83;;;10.83;;
46363;SDS011;32071;49.036;9.344;2023-06-26T11:30:03;11.27;;;10.43;;
46363;SDS011;32071;49.036;9.344;2023-06-26T11:32:32;12.07;;;10.97;;
46363;SDS011;32071;49.036;9.344;2023-06-26T11:34:58;11.63;;;10.60;;
46363;SDS011;32071;49.036;9.344;2023-06-26T11:37:24;11.50;;;10.50;;
46363;SDS011;32071;49.036;9.344;2023-06-26T11:39:50;14.67;;;10.70;;
46363;SDS011;32071;49.036;9.344;2023-06-26T11:42:16;11.50;;;10.53;;
46363;SDS011;32071;49.036;9.344;2023-06-26T11:44:44;12.30;;;11.10;;
46363;SDS011;32071;49.036;9.344;2023-06-26T11:47:20;11.90;;;10.80;;
46363;SDS011;32071;49.036;9.344;2023-06-26T11:49:46;11.97;;;10.97;;
46363;SDS011;32071;49.036;9.344;2023-06-26T11:52:13;12.03;;;11.03;;
46363;SDS011;32071;49.036;9.344;2023-06-26T11:54:40;11.93;;;10.97;;
46363;SDS011;32071;49.036;9.344;2023-06-26T11:57:06;12.53;;;11.43;;
46363;SDS011;32071;49.036;9.344;2023-06-26T11:59:35;12.80;;;11.60;;
46363;SDS011;32071;49.036;9.344;2023-06-26T12:02:06;11.83;;;10.83;;
46363;SDS011;32071;49.036;9.344;2023-06-26T12:04:33;12.17;;;10.97;;
46363;SDS011;32071;49.036;9.344;2023-06-26T12:07:00;11.77;;;10.77;;
46363;SDS011;32071;49.036;9.344;2023-06-26T12:09:32;11.97;;;10.80;;
46363;SDS011;32071;49.036;9.344;2023-06-26T12:11:58;11.93;;;10.93;;
46363;SDS011;32071;49.036;9.344;2023-06-26T12:14:25;11.43;;;10.43;;
46363;SDS011;32071;49.036;9.344;2023-06-26T12:16:53;14.77;;;11.20;;
46363;SDS011;32071;49.036;9.344;2023-06-26T12:19:23;11.30;;;9.93;;
46363;SDS011;32071;49.036;9.344;2023-06-26T12:21:51;11.63;;;10.43;;
46363;SDS011;32071;49.036;9.344;2023-06-26T12:24:20;11.20;;;10.13;;
46363;SDS011;32071;49.036;9.344;2023-06-26T12:26:51;11.10;;;9.93;;
46363;SDS011;32071;49.036;9.344;2023-06-26T12:29:19;12.00;;;11.00;;
46363;SDS011;32071;49.036;9.344;2023-06-26T12:31:50;11.83;;;10.77;;
46363;SDS011;32071;49.036;9.344;2023-06-26T12:34:18;11.33;;;10.43;;
46363;SDS011;32071;49.036;9.344;2023-06-26T12:36:46;12.20;;;11.10;;
46363;SDS011;32071;49.036;9.344;2023-06-26T12:39:15;11.90;;;10.80;;
46363;SDS011;32071;49.036;9.344;2023-06-26T12:44:28;12.90;;;11.67;;
46363;SDS011;32071;49.036;9.344;2023-06-26T12:46:58;12.17;;;11.10;;
46363;SDS011;32071;49.036;9.344;2023-06-26T12:52:00;14.17;;;12.97;;
46363;SDS011;32071;49.036;9.344;2023-06-26T12:54:26;13.40;;;11.33;;
46363;SDS011;32071;49.036;9.344;2023-06-26T12:56:52;13.73;;;11.97;;
46363;SDS011;32071;49.036;9.344;2023-06-26T12:59:18;11.83;;;10.93;;
46363;SDS011;32071;49.036;9.344;2023-06-26T13:01:44;12.90;;;11.80;;
46363;SDS011;32071;49.036;9.344;2023-06-26T13:04:10;13.20;;;12.00;;
46363;SDS011;32071;49.036;9.344;2023-06-26T13:06:36;11.30;;;10.30;;
46363;SDS011;32071;49.036;9.344;2023-06-26T13:09:01;11.80;;;10.80;;
46363;SDS011;32071;49.036;9.344;2023-06-26T13:11:29;12.37;;;11.37;;
46363;SDS011;32071;49.036;9.344;2023-06-26T13:14:01;13.27;;;11.90;;
46363;SDS011;32071;49.036;9.344;2023-06-26T13:16:26;12.20;;;11.10;;
46363;SDS011;32071;49.036;9.344;2023-06-26T13:18:52;12.07;;;10.73;;
46363;SDS011;32071;49.036;9.344;2023-06-26T13:21:18;11.03;;;9.57;;
46363;SDS011;32071;49.036;9.344;2023-06-26T13:23:44;12.47;;;9.67;;
46363;SDS011;32071;49.036;9.344;2023-06-26T13:26:10;9.63;;;8.93;;
46363;SDS011;32071;49.036;9.344;2023-06-26T13:28:36;10.67;;;9.67;;
46363;SDS011;32071;49.036;9.344;2023-06-26T13:31:02;10.30;;;9.47;;
46363;SDS011;32071;49.036;9.344;2023-06-26T13:33:29;10.50;;;9.50;;
46363;SDS011;32071;49.036;9.344;2023-06-26T13:35:55;10.67;;;9.63;;
46363;SDS011;32071;49.036;9.344;2023-06-26T13:38:24;10.03;;;9.10;;
46363;SDS011;32071;49.036;9.344;2023-06-26T13:40:53;9.97;;;9.17;;
46363;SDS011;32071;49.036;9.344;2023-06-26T13:43:22;8.20;;;7.53;;
46363;SDS011;32071;49.036;9.344;2023-06-26T13:45:48;8.87;;;8.07;;
46363;SDS011;32071;49.036;9.344;2023-06-26T13:48:14;8.53;;;7.53;;
46363;SDS011;32071;49.036;9.344;2023-06-26T13:50:39;8.33;;;7.53;;
46363;SDS011;32071;49.036;9.344;2023-06-26T13:53:05;7.67;;;7.07;;
46363;SDS011;32071;49.036;9.344;2023-06-26T13:55:31;8.30;;;7.70;;
46363;SDS011;32071;49.036;9.344;2023-06-26T13:57:57;8.10;;;7.50;;
46363;SDS011;32071;49.036;9.344;2023-06-26T14:00:23;7.13;;;6.63;;
46363;SDS011;32071;49.036;9.344;2023-06-26T14:02:49;7.63;;;6.93;;
46363;SDS011;32071;49.036;9.344;2023-06-26T14:05:15;7.80;;;7.10;;
46363;SDS011;32071;49.036;9.344;2023-06-26T14:07:43;7.57;;;6.87;;
46363;SDS011;32071;49.036;9.344;2023-06-26T14:10:09;7.30;;;6.70;;
46363;SDS011;32071;49.036;9.344;2023-06-26T14:12:35;7.50;;;6.80;;
46363;SDS011;32071;49.036;9.344;2023-06-26T14:15:00;6.60;;;6.00;;
46363;SDS011;32071;49.036;9.344;2023-06-26T14:17:26;6.17;;;5.77;;
46363;SDS011;32071;49.036;9.344;2023-06-26T14:19:52;6.50;;;5.90;;
46363;SDS011;32071;49.036;9.344;2023-06-26T14:22:18;5.60;;;5.20;;
46363;SDS011;32071;49.036;9.344;2023-06-26T14:24:44;6.93;;;5.93;;
46363;SDS011;32071;49.036;9.344;2023-06-26T14:27:09;6.23;;;5.73;;
46363;SDS011;32071;49.036;9.344;2023-06-26T14:29:35;5.53;;;5.03;;
46363;SDS011;32071;49.036;9.344;2023-06-26T14:32:02;5.80;;;5.33;;
46363;SDS011;32071;49.036;9.344;2023-06-26T14:34:28;5.73;;;5.13;;
46363;SDS011;32071;49.036;9.344;2023-06-26T14:36:53;7.50;;;5.23;;
46363;SDS011;32071;49.036;9.344;2023-06-26T14:39:19;5.00;;;4.50;;
46363;SDS011;32071;49.036;9.344;2023-06-26T14:41:44;10.60;;;5.13;;
46363;SDS011;32071;49.036;9.344;2023-06-26T14:44:12;6.20;;;4.60;;
46363;SDS011;32071;49.036;9.344;2023-06-26T14:46:38;5.17;;;4.77;;
46363;SDS011;32071;49.036;9.344;2023-06-26T14:49:03;5.77;;;4.53;;
46363;SDS011;32071;49.036;9.344;2023-06-26T14:51:29;6.33;;;5.37;;